sensor_id;sensor_type;location;lat;lon;timestamp;P1;durP1;ratioP1;P2;durP2;ratioP2
49946;SDS011;35839;48.662;13.300;2022-09-09T05:05:39;4.63;;;2.55;;
49946;SDS011;35839;48.662;13.300;2022-09-09T05:08:05;3.92;;;2.35;;
49946;SDS011;35839;48.662;13.300;2022-09-09T05:10:32;3.80;;;2.22;;
49946;SDS011;35839;48.662;13.300;2022-09-09T05:12:58;8.15;;;3.22;;
49946;SDS011;35839;48.662;13.300;2022-09-09T05:15:24;3.67;;;3.10;;
49946;SDS011;35839;48.662;13.300;2022-09-09T05:17:49;3.90;;;2.97;;
49946;SDS011;35839;48.662;13.300;2022-09-09T05:20:17;3.80;;;2.88;;
49946;SDS011;35839;48.662;13.300;2022-09-09T05:22:43;4.20;;;2.65;;
49946;SDS011;35839;48.662;13.300;2022-09-09T05:25:08;3.53;;;2.45;;
49946;SDS011;35839;48.662;13.300;2022-09-09T05:27:34;3.97;;;2.60;;
49946;SDS011;35839;48.662;13.300;2022-09-09T05:29:59;3.33;;;2.72;;
49946;SDS011;35839;48.662;13.300;2022-09-09T05:32:25;6.20;;;3.67;;
49946;SDS011;35839;48.662;13.300;2022-09-09T05:34:51;3.00;;;2.70;;
49946;SDS011;35839;48.662;13.300;2022-09-09T05:37:17;4.25;;;3.25;;
49946;SDS011;35839;48.662;13.300;2022-09-09T05:39:43;4.55;;;3.05;;
49946;SDS011;35839;48.662;13.300;2022-09-09T05:42:09;3.92;;;3.25;;
49946;SDS011;35839;48.662;13.300;2022-09-09T05:44:34;7.40;;;2.65;;
49946;SDS011;35839;48.662;13.300;2022-09-09T05:47:00;3.55;;;2.95;;
49946;SDS011;35839;48.662;13.300;2022-09-09T05:49:25;4.78;;;3.22;;
49946;SDS011;35839;48.662;13.300;2022-09-09T05:51:51;4.38;;;3.42;;
49946;SDS011;35839;48.662;13.300;2022-09-09T05:54:16;4.97;;;3.47;;
49946;SDS011;35839;48.662;13.300;2022-09-09T05:56:42;4.93;;;3.25;;
49946;SDS011;35839;48.662;13.300;2022-09-09T05:59:07;3.95;;;2.92;;
49946;SDS011;35839;48.662;13.300;2022-09-09T06:01:34;3.13;;;2.83;;
49946;SDS011;35839;48.662;13.300;2022-09-09T06:04:00;4.93;;;3.10;;
49946;SDS011;35839;48.662;13.300;2022-09-09T06:06:27;6.13;;;2.53;;
49946;SDS011;35839;48.662;13.300;2022-09-09T06:08:56;3.17;;;2.75;;
49946;SDS011;35839;48.662;13.300;2022-09-09T06:11:23;2.88;;;2.58;;
49946;SDS011;35839;48.662;13.300;2022-09-09T06:13:56;4.20;;;3.45;;
49946;SDS011;35839;48.662;13.300;2022-09-09T06:16:22;3.72;;;3.15;;
49946;SDS011;35839;48.662;13.300;2022-09-09T06:18:49;4.60;;;3.28;;
49946;SDS011;35839;48.662;13.300;2022-09-09T06:21:16;5.45;;;3.42;;
49946;SDS011;35839;48.662;13.300;2022-09-09T06:23:42;8.05;;;3.58;;
49946;SDS011;35839;48.662;13.300;2022-09-09T06:26:10;4.20;;;3.70;;
49946;SDS011;35839;48.662;13.300;2022-09-09T06:28:41;4.25;;;3.85;;
49946;SDS011;35839;48.662;13.300;2022-09-09T06:31:08;11.98;;;6.93;;
49946;SDS011;35839;48.662;13.300;2022-09-09T06:33:39;8.97;;;4.47;;
49946;SDS011;35839;48.662;13.300;2022-09-09T06:36:14;5.38;;;3.72;;
49946;SDS011;35839;48.662;13.300;2022-09-09T06:38:44;6.68;;;4.78;;
49946;SDS011;35839;48.662;13.300;2022-09-09T06:41:10;5.43;;;4.20;;
49946;SDS011;35839;48.662;13.300;2022-09-09T06:43:37;4.07;;;3.67;;
49946;SDS011;35839;48.662;13.300;2022-09-09T06:46:04;36.90;;;6.68;;
49946;SDS011;35839;48.662;13.300;2022-09-09T06:48:53;7.10;;;4.47;;
49946;SDS011;35839;48.662;13.300;2022-09-09T06:51:23;5.43;;;4.72;;
49946;SDS011;35839;48.662;13.300;2022-09-09T06:53:51;5.88;;;4.03;;
49946;SDS011;35839;48.662;13.300;2022-09-09T06:58:52;6.40;;;4.70;;
49946;SDS011;35839;48.662;13.300;2022-09-09T07:01:20;7.43;;;5.47;;
49946;SDS011;35839;48.662;13.300;2022-09-09T07:03:51;6.70;;;5.00;;
49946;SDS011;35839;48.662;13.300;2022-09-09T07:06:22;6.50;;;5.28;;
49946;SDS011;35839;48.662;13.300;2022-09-09T07:08:52;15.90;;;5.15;;
49946;SDS011;35839;48.662;13.300;2022-09-09T07:11:24;14.55;;;6.57;;
49946;SDS011;35839;48.662;13.300;2022-09-09T07:13:55;6.65;;;5.18;;
49946;SDS011;35839;48.662;13.300;2022-09-09T07:16:22;5.60;;;4.40;;
49946;SDS011;35839;48.662;13.300;2022-09-09T07:18:52;7.20;;;5.38;;
49946;SDS011;35839;48.662;13.300;2022-09-09T07:21:20;5.43;;;4.63;;
49946;SDS011;35839;48.662;13.300;2022-09-09T07:23:46;6.15;;;4.85;;
49946;SDS011;35839;48.662;13.300;2022-09-09T07:26:12;7.28;;;4.57;;
49946;SDS011;35839;48.662;13.300;2022-09-09T07:28:40;5.00;;;4.50;;
49946;SDS011;35839;48.662;13.300;2022-09-09T07:31:06;8.90;;;4.88;;
49946;SDS011;35839;48.662;13.300;2022-09-09T07:33:38;5.00;;;4.28;;
49946;SDS011;35839;48.662;13.300;2022-09-09T07:36:27;9.98;;;5.47;;
49946;SDS011;35839;48.662;13.300;2022-09-09T07:38:53;4.72;;;4.00;;
49946;SDS011;35839;48.662;13.300;2022-09-09T07:41:27;5.35;;;4.57;;
49946;SDS011;35839;48.662;13.300;2022-09-09T07:43:55;9.70;;;7.70;;
49946;SDS011;35839;48.662;13.300;2022-09-09T07:46:21;6.20;;;5.43;;
49946;SDS011;35839;48.662;13.300;2022-09-09T07:48:49;6.10;;;5.13;;
49946;SDS011;35839;48.662;13.300;2022-09-09T07:51:18;5.22;;;4.72;;
49946;SDS011;35839;48.662;13.300;2022-09-09T07:53:47;7.93;;;4.60;;
49946;SDS011;35839;48.662;13.300;2022-09-09T07:56:16;5.10;;;4.60;;
49946;SDS011;35839;48.662;13.300;2022-09-09T07:58:44;6.25;;;5.10;;
49946;SDS011;35839;48.662;13.300;2022-09-09T08:01:18;7.38;;;4.82;;
49946;SDS011;35839;48.662;13.300;2022-09-09T08:03:46;6.70;;;5.20;;
49946;SDS011;35839;48.662;13.300;2022-09-09T08:06:17;6.97;;;5.72;;
49946;SDS011;35839;48.662;13.300;2022-09-09T08:08:43;5.50;;;4.90;;
49946;SDS011;35839;48.662;13.300;2022-09-09T08:11:11;7.60;;;5.32;;
49946;SDS011;35839;48.662;13.300;2022-09-09T08:13:39;5.60;;;4.82;;
49946;SDS011;35839;48.662;13.300;2022-09-09T08:18:36;6.07;;;4.13;;
49946;SDS011;35839;48.662;13.300;2022-09-09T08:21:10;5.40;;;4.60;;
49946;SDS011;35839;48.662;13.300;2022-09-09T08:23:41;5.50;;;4.15;;
49946;SDS011;35839;48.662;13.300;2022-09-09T08:28:50;21.65;;;5.07;;
49946;SDS011;35839;48.662;13.300;2022-09-09T08:31:28;7.20;;;4.18;;
49946;SDS011;35839;48.662;13.300;2022-09-09T08:33:56;5.93;;;4.55;;
49946;SDS011;35839;48.662;13.300;2022-09-09T08:36:24;13.13;;;4.32;;
49946;SDS011;35839;48.662;13.300;2022-09-09T08:38:56;5.30;;;4.15;;
49946;SDS011;35839;48.662;13.300;2022-09-09T08:46:46;6.82;;;3.85;;
49946;SDS011;35839;48.662;13.300;2022-09-09T08:51:53;7.95;;;4.18;;
49946;SDS011;35839;48.662;13.300;2022-09-09T08:54:21;4.97;;;4.47;;
49946;SDS011;35839;48.662;13.300;2022-09-09T08:56:47;5.88;;;4.65;;
49946;SDS011;35839;48.662;13.300;2022-09-09T08:59:14;5.05;;;4.45;;
49946;SDS011;35839;48.662;13.300;2022-09-09T09:07:28;7.10;;;3.63;;
49946;SDS011;35839;48.662;13.300;2022-09-09T09:12:53;5.43;;;4.05;;
49946;SDS011;35839;48.662;13.300;2022-09-09T09:15:25;4.63;;;3.80;;
49946;SDS011;35839;48.662;13.300;2022-09-09T09:17:55;7.25;;;3.75;;
49946;SDS011;35839;48.662;13.300;2022-09-09T09:20:24;6.50;;;3.70;;
49946;SDS011;35839;48.662;13.300;2022-09-09T09:23:01;5.90;;;4.00;;
49946;SDS011;35839;48.662;13.300;2022-09-09T09:25:34;5.53;;;4.03;;
49946;SDS011;35839;48.662;13.300;2022-09-09T09:28:07;5.10;;;4.20;;
49946;SDS011;35839;48.662;13.300;2022-09-09T09:30:42;5.00;;;3.38;;
49946;SDS011;35839;48.662;13.300;2022-09-09T09:36:05;6.07;;;3.33;;
49946;SDS011;35839;48.662;13.300;2022-09-09T09:38:34;4.35;;;3.55;;
49946;SDS011;35839;48.662;13.300;2022-09-09T09:41:01;5.93;;;3.70;;
49946;SDS011;35839;48.662;13.300;2022-09-09T09:43:28;5.07;;;3.33;;
49946;SDS011;35839;48.662;13.300;2022-09-09T09:45:55;4.55;;;3.58;;
49946;SDS011;35839;48.662;13.300;2022-09-09T09:48:22;4.13;;;3.40;;
49946;SDS011;35839;48.662;13.300;2022-09-09T09:50:52;4.60;;;3.42;;
49946;SDS011;35839;48.662;13.300;2022-09-09T09:53:24;4.35;;;3.22;;
49946;SDS011;35839;48.662;13.300;2022-09-09T09:55:57;4.15;;;2.90;;
49946;SDS011;35839;48.662;13.300;2022-09-09T09:58:29;3.90;;;3.50;;
49946;SDS011;35839;48.662;13.300;2022-09-09T10:00:59;7.43;;;4.03;;
49946;SDS011;35839;48.662;13.300;2022-09-09T10:05:54;3.75;;;3.03;;
49946;SDS011;35839;48.662;13.300;2022-09-09T10:08:21;5.93;;;3.80;;
49946;SDS011;35839;48.662;13.300;2022-09-09T10:19:18;4.70;;;3.28;;
49946;SDS011;35839;48.662;13.300;2022-09-09T10:24:51;5.38;;;3.67;;
49946;SDS011;35839;48.662;13.300;2022-09-09T10:30:46;4.28;;;3.60;;
49946;SDS011;35839;48.662;13.300;2022-09-09T10:36:20;5.80;;;3.25;;
49946;SDS011;35839;48.662;13.300;2022-09-09T10:57:06;8.25;;;5.68;;
49946;SDS011;35839;48.662;13.300;2022-09-09T10:59:58;7.30;;;5.28;;
49946;SDS011;35839;48.662;13.300;2022-09-09T11:02:29;8.95;;;5.88;;
49946;SDS011;35839;48.662;13.300;2022-09-09T11:05:16;7.50;;;5.30;;
49946;SDS011;35839;48.662;13.300;2022-09-09T11:07:47;8.05;;;5.18;;
49946;SDS011;35839;48.662;13.300;2022-09-09T11:10:24;5.70;;;4.45;;
49946;SDS011;35839;48.662;13.300;2022-09-09T11:12:53;7.18;;;5.10;;
49946;SDS011;35839;48.662;13.300;2022-09-09T11:15:31;8.73;;;5.50;;
49946;SDS011;35839;48.662;13.300;2022-09-09T11:18:05;10.18;;;5.60;;
49946;SDS011;35839;48.662;13.300;2022-09-09T11:20:36;9.90;;;6.03;;
49946;SDS011;35839;48.662;13.300;2022-09-09T11:23:09;5.53;;;4.45;;
49946;SDS011;35839;48.662;13.300;2022-09-09T11:25:59;10.40;;;4.85;;
49946;SDS011;35839;48.662;13.300;2022-09-09T11:39:30;9.13;;;4.72;;
49946;SDS011;35839;48.662;13.300;2022-09-09T11:44:37;5.78;;;4.57;;
49946;SDS011;35839;48.662;13.300;2022-09-09T11:47:03;5.50;;;4.57;;
49946;SDS011;35839;48.662;13.300;2022-09-09T11:49:29;8.48;;;4.15;;
49946;SDS011;35839;48.662;13.300;2022-09-09T11:52:21;7.80;;;3.67;;
49946;SDS011;35839;48.662;13.300;2022-09-09T11:54:50;7.50;;;4.05;;
49946;SDS011;35839;48.662;13.300;2022-09-09T11:57:22;6.05;;;4.10;;
49946;SDS011;35839;48.662;13.300;2022-09-09T11:59:51;9.27;;;4.07;;
49946;SDS011;35839;48.662;13.300;2022-09-09T12:02:29;5.13;;;4.40;;
49946;SDS011;35839;48.662;13.300;2022-09-09T12:07:48;6.38;;;4.38;;
49946;SDS011;35839;48.662;13.300;2022-09-09T12:12:46;7.47;;;4.37;;
49946;SDS011;35839;48.662;13.300;2022-09-09T12:17:41;6.80;;;4.20;;
49946;SDS011;35839;48.662;13.300;2022-09-09T12:26:04;6.55;;;4.35;;
49946;SDS011;35839;48.662;13.300;2022-09-09T12:31:24;8.23;;;4.97;;
49946;SDS011;35839;48.662;13.300;2022-09-09T12:34:09;7.13;;;4.35;;
49946;SDS011;35839;48.662;13.300;2022-09-09T12:36:41;9.90;;;4.63;;
49946;SDS011;35839;48.662;13.300;2022-09-09T12:39:19;6.95;;;5.03;;
49946;SDS011;35839;48.662;13.300;2022-09-09T12:41:53;7.82;;;5.15;;
49946;SDS011;35839;48.662;13.300;2022-09-09T12:44:22;6.72;;;5.47;;
49946;SDS011;35839;48.662;13.300;2022-09-09T12:46:48;9.40;;;4.88;;
49946;SDS011;35839;48.662;13.300;2022-09-09T12:51:52;6.63;;;4.70;;
49946;SDS011;35839;48.662;13.300;2022-09-09T12:54:18;7.85;;;5.28;;
49946;SDS011;35839;48.662;13.300;2022-09-09T12:56:47;7.85;;;5.13;;
49946;SDS011;35839;48.662;13.300;2022-09-09T12:59:21;9.43;;;4.65;;
49946;SDS011;35839;48.662;13.300;2022-09-09T13:01:59;7.53;;;5.18;;
49946;SDS011;35839;48.662;13.300;2022-09-09T13:04:24;11.40;;;5.85;;
49946;SDS011;35839;48.662;13.300;2022-09-09T13:06:50;7.20;;;5.07;;
49946;SDS011;35839;48.662;13.300;2022-09-09T13:09:17;9.23;;;5.30;;
49946;SDS011;35839;48.662;13.300;2022-09-09T13:11:45;7.40;;;5.28;;
49946;SDS011;35839;48.662;13.300;2022-09-09T13:14:19;9.98;;;5.65;;
49946;SDS011;35839;48.662;13.300;2022-09-09T13:16:59;6.55;;;5.15;;
49946;SDS011;35839;48.662;13.300;2022-09-09T13:19:29;5.93;;;4.22;;
49946;SDS011;35839;48.662;13.300;2022-09-09T13:21:59;8.38;;;5.50;;
49946;SDS011;35839;48.662;13.300;2022-09-09T13:24:29;7.43;;;5.18;;
49946;SDS011;35839;48.662;13.300;2022-09-09T13:27:03;9.60;;;6.07;;
49946;SDS011;35839;48.662;13.300;2022-09-09T13:29:51;8.05;;;5.68;;
49946;SDS011;35839;48.662;13.300;2022-09-09T13:32:22;8.93;;;6.30;;
49946;SDS011;35839;48.662;13.300;2022-09-09T13:34:52;10.82;;;6.13;;
49946;SDS011;35839;48.662;13.300;2022-09-09T13:37:30;14.48;;;6.43;;
49946;SDS011;35839;48.662;13.300;2022-09-09T13:40:00;8.90;;;6.10;;
49946;SDS011;35839;48.662;13.300;2022-09-09T13:42:28;7.35;;;5.43;;
49946;SDS011;35839;48.662;13.300;2022-09-09T13:44:56;7.47;;;5.72;;
49946;SDS011;35839;48.662;13.300;2022-09-09T13:47:35;7.72;;;6.25;;
49946;SDS011;35839;48.662;13.300;2022-09-09T13:52:54;10.27;;;6.05;;
49946;SDS011;35839;48.662;13.300;2022-09-09T13:55:23;6.78;;;5.82;;
49946;SDS011;35839;48.662;13.300;2022-09-09T13:57:54;6.70;;;5.63;;
49946;SDS011;35839;48.662;13.300;2022-09-09T14:00:25;6.93;;;5.50;;
49946;SDS011;35839;48.662;13.300;2022-09-09T14:02:53;7.72;;;5.45;;
49946;SDS011;35839;48.662;13.300;2022-09-09T14:05:20;9.63;;;5.53;;
49946;SDS011;35839;48.662;13.300;2022-09-09T14:07:47;8.68;;;6.20;;
49946;SDS011;35839;48.662;13.300;2022-09-09T14:10:13;7.13;;;5.53;;
49946;SDS011;35839;48.662;13.300;2022-09-09T14:12:39;7.18;;;5.05;;
49946;SDS011;35839;48.662;13.300;2022-09-09T14:15:05;11.55;;;4.65;;
49946;SDS011;35839;48.662;13.300;2022-09-09T14:17:32;6.57;;;4.70;;
49946;SDS011;35839;48.662;13.300;2022-09-09T14:19:58;8.50;;;4.82;;
49946;SDS011;35839;48.662;13.300;2022-09-09T14:22:23;6.28;;;4.65;;
49946;SDS011;35839;48.662;13.300;2022-09-09T14:24:50;5.82;;;4.05;;
49946;SDS011;35839;48.662;13.300;2022-09-09T14:27:16;4.95;;;4.15;;
49946;SDS011;35839;48.662;13.300;2022-09-09T14:29:44;8.85;;;4.35;;
49946;SDS011;35839;48.662;13.300;2022-09-09T14:32:10;5.15;;;3.53;;
49946;SDS011;35839;48.662;13.300;2022-09-09T14:34:36;5.00;;;3.80;;
49946;SDS011;35839;48.662;13.300;2022-09-09T14:37:02;6.43;;;4.35;;
49946;SDS011;35839;48.662;13.300;2022-09-09T14:39:27;6.95;;;3.88;;
49946;SDS011;35839;48.662;13.300;2022-09-09T14:41:53;5.25;;;4.07;;
49946;SDS011;35839;48.662;13.300;2022-09-09T14:44:18;5.70;;;4.70;;
49946;SDS011;35839;48.662;13.300;2022-09-09T14:46:44;6.20;;;3.90;;
49946;SDS011;35839;48.662;13.300;2022-09-09T14:49:09;4.68;;;3.40;;
49946;SDS011;35839;48.662;13.300;2022-09-09T14:51:37;4.50;;;3.55;;
49946;SDS011;35839;48.662;13.300;2022-09-09T14:54:03;6.47;;;3.40;;
49946;SDS011;35839;48.662;13.300;2022-09-09T14:56:29;8.68;;;3.80;;
49946;SDS011;35839;48.662;13.300;2022-09-09T14:58:57;7.13;;;4.70;;
49946;SDS011;35839;48.662;13.300;2022-09-09T15:03:55;5.20;;;3.78;;
49946;SDS011;35839;48.662;13.300;2022-09-09T15:06:23;5.28;;;4.50;;
49946;SDS011;35839;48.662;13.300;2022-09-09T15:08:50;5.80;;;3.22;;
49946;SDS011;35839;48.662;13.300;2022-09-09T15:11:17;5.45;;;3.83;;
49946;SDS011;35839;48.662;13.300;2022-09-09T15:13:43;3.78;;;2.50;;
49946;SDS011;35839;48.662;13.300;2022-09-09T15:18:38;5.03;;;2.92;;
49946;SDS011;35839;48.662;13.300;2022-09-09T15:21:11;5.50;;;2.83;;
49946;SDS011;35839;48.662;13.300;2022-09-09T15:23:41;4.47;;;2.92;;
49946;SDS011;35839;48.662;13.300;2022-09-09T15:26:07;5.43;;;3.13;;
49946;SDS011;35839;48.662;13.300;2022-09-09T15:28:34;4.15;;;3.58;;
49946;SDS011;35839;48.662;13.300;2022-09-09T15:31:04;5.55;;;3.60;;
49946;SDS011;35839;48.662;13.300;2022-09-09T15:33:34;5.53;;;3.30;;
49946;SDS011;35839;48.662;13.300;2022-09-09T15:36:11;5.03;;;3.53;;
49946;SDS011;35839;48.662;13.300;2022-09-09T15:38:37;6.82;;;3.90;;
49946;SDS011;35839;48.662;13.300;2022-09-09T15:41:03;5.90;;;5.15;;
49946;SDS011;35839;48.662;13.300;2022-09-09T15:43:28;7.28;;;4.88;;
49946;SDS011;35839;48.662;13.300;2022-09-09T15:45:58;5.93;;;5.23;;
49946;SDS011;35839;48.662;13.300;2022-09-09T15:48:33;6.43;;;4.57;;
49946;SDS011;35839;48.662;13.300;2022-09-09T15:51:02;10.85;;;6.90;;
49946;SDS011;35839;48.662;13.300;2022-09-09T15:53:28;6.30;;;4.03;;
49946;SDS011;35839;48.662;13.300;2022-09-09T15:55:55;6.28;;;4.47;;
49946;SDS011;35839;48.662;13.300;2022-09-09T15:58:20;7.88;;;4.45;;
49946;SDS011;35839;48.662;13.300;2022-09-09T16:00:46;5.63;;;4.45;;
49946;SDS011;35839;48.662;13.300;2022-09-09T16:03:11;7.82;;;5.03;;
49946;SDS011;35839;48.662;13.300;2022-09-09T16:05:37;6.75;;;5.13;;
49946;SDS011;35839;48.662;13.300;2022-09-09T16:08:03;7.70;;;5.63;;
49946;SDS011;35839;48.662;13.300;2022-09-09T16:10:29;10.05;;;7.68;;
49946;SDS011;35839;48.662;13.300;2022-09-09T16:12:55;5.82;;;4.82;;
49946;SDS011;35839;48.662;13.300;2022-09-09T16:15:21;4.18;;;3.60;;
49946;SDS011;35839;48.662;13.300;2022-09-09T16:17:48;6.40;;;4.97;;
49946;SDS011;35839;48.662;13.300;2022-09-09T16:20:13;7.38;;;4.32;;
49946;SDS011;35839;48.662;13.300;2022-09-09T16:22:39;7.22;;;4.78;;
49946;SDS011;35839;48.662;13.300;2022-09-09T16:25:05;5.68;;;4.35;;
49946;SDS011;35839;48.662;13.300;2022-09-09T16:27:31;6.40;;;4.63;;
49946;SDS011;35839;48.662;13.300;2022-09-09T16:29:56;6.07;;;5.32;;
49946;SDS011;35839;48.662;13.300;2022-09-09T16:32:22;5.47;;;4.45;;
49946;SDS011;35839;48.662;13.300;2022-09-09T16:34:47;7.10;;;4.00;;
49946;SDS011;35839;48.662;13.300;2022-09-09T16:37:13;4.70;;;3.47;;
49946;SDS011;35839;48.662;13.300;2022-09-09T16:39:38;6.20;;;3.70;;
49946;SDS011;35839;48.662;13.300;2022-09-09T16:42:03;5.82;;;3.70;;
49946;SDS011;35839;48.662;13.300;2022-09-09T16:44:29;7.57;;;4.85;;
49946;SDS011;35839;48.662;13.300;2022-09-09T16:46:55;6.80;;;4.55;;
49946;SDS011;35839;48.662;13.300;2022-09-09T16:49:21;6.18;;;5.25;;
49946;SDS011;35839;48.662;13.300;2022-09-09T16:51:47;7.20;;;5.38;;
49946;SDS011;35839;48.662;13.300;2022-09-09T16:54:15;8.53;;;5.27;;
49946;SDS011;35839;48.662;13.300;2022-09-09T16:56:42;6.63;;;5.47;;
49946;SDS011;35839;48.662;13.300;2022-09-09T16:59:13;7.10;;;5.72;;
49946;SDS011;35839;48.662;13.300;2022-09-09T17:01:41;6.10;;;5.47;;
49946;SDS011;35839;48.662;13.300;2022-09-09T17:04:09;6.68;;;5.53;;
49946;SDS011;35839;48.662;13.300;2022-09-09T17:06:38;9.00;;;5.90;;
49946;SDS011;35839;48.662;13.300;2022-09-09T17:09:06;8.27;;;5.90;;
49946;SDS011;35839;48.662;13.300;2022-09-09T17:11:33;11.10;;;7.15;;
49946;SDS011;35839;48.662;13.300;2022-09-09T17:14:00;7.72;;;6.13;;
49946;SDS011;35839;48.662;13.300;2022-09-09T17:16:27;9.68;;;6.70;;
49946;SDS011;35839;48.662;13.300;2022-09-09T17:18:55;10.60;;;9.48;;
49946;SDS011;35839;48.662;13.300;2022-09-09T17:21:22;8.35;;;7.15;;
49946;SDS011;35839;48.662;13.300;2022-09-09T17:23:50;8.52;;;7.25;;
49946;SDS011;35839;48.662;13.300;2022-09-09T17:26:17;8.73;;;7.05;;
49946;SDS011;35839;48.662;13.300;2022-09-09T17:28:44;7.90;;;7.07;;
49946;SDS011;35839;48.662;13.300;2022-09-09T17:31:11;12.50;;;8.13;;
49946;SDS011;35839;48.662;13.300;2022-09-09T17:33:39;8.82;;;6.97;;
49946;SDS011;35839;48.662;13.300;2022-09-09T17:36:11;8.27;;;7.30;;
49946;SDS011;35839;48.662;13.300;2022-09-09T17:38:39;8.02;;;6.75;;
49946;SDS011;35839;48.662;13.300;2022-09-09T17:41:09;12.25;;;7.45;;
49946;SDS011;35839;48.662;13.300;2022-09-09T17:43:36;12.45;;;7.78;;
49946;SDS011;35839;48.662;13.300;2022-09-09T17:46:11;20.02;;;8.95;;
49946;SDS011;35839;48.662;13.300;2022-09-09T17:48:48;9.50;;;7.78;;
49946;SDS011;35839;48.662;13.300;2022-09-09T17:51:19;12.65;;;8.23;;
49946;SDS011;35839;48.662;13.300;2022-09-09T17:53:52;13.80;;;8.68;;
49946;SDS011;35839;48.662;13.300;2022-09-09T17:56:23;9.73;;;8.15;;
49946;SDS011;35839;48.662;13.300;2022-09-09T17:58:50;9.38;;;8.48;;
49946;SDS011;35839;48.662;13.300;2022-09-09T18:01:17;11.80;;;7.72;;
49946;SDS011;35839;48.662;13.300;2022-09-09T18:03:47;9.63;;;7.78;;
49946;SDS011;35839;48.662;13.300;2022-09-09T18:06:15;12.68;;;7.72;;
49946;SDS011;35839;48.662;13.300;2022-09-09T18:11:12;9.57;;;8.15;;
49946;SDS011;35839;48.662;13.300;2022-09-09T18:13:38;12.13;;;8.90;;
49946;SDS011;35839;48.662;13.300;2022-09-09T18:16:05;16.23;;;9.65;;
49946;SDS011;35839;48.662;13.300;2022-09-09T18:20:58;12.57;;;9.80;;
49946;SDS011;35839;48.662;13.300;2022-09-09T18:23:25;10.48;;;9.38;;
49946;SDS011;35839;48.662;13.300;2022-09-09T18:25:51;12.15;;;9.88;;
49946;SDS011;35839;48.662;13.300;2022-09-09T18:28:17;11.48;;;9.27;;
49946;SDS011;35839;48.662;13.300;2022-09-09T18:30:44;11.80;;;8.75;;
49946;SDS011;35839;48.662;13.300;2022-09-09T18:33:10;9.98;;;8.38;;
49946;SDS011;35839;48.662;13.300;2022-09-09T18:35:35;9.50;;;8.15;;
49946;SDS011;35839;48.662;13.300;2022-09-09T18:38:01;9.40;;;7.60;;
49946;SDS011;35839;48.662;13.300;2022-09-09T18:40:29;10.18;;;8.48;;
49946;SDS011;35839;48.662;13.300;2022-09-09T18:42:55;11.73;;;8.85;;
49946;SDS011;35839;48.662;13.300;2022-09-09T18:45:20;13.07;;;8.93;;
49946;SDS011;35839;48.662;13.300;2022-09-09T18:47:46;11.85;;;8.75;;
49946;SDS011;35839;48.662;13.300;2022-09-09T18:50:13;10.85;;;9.05;;
49946;SDS011;35839;48.662;13.300;2022-09-09T18:52:39;14.65;;;10.02;;
49946;SDS011;35839;48.662;13.300;2022-09-09T18:55:04;11.00;;;9.90;;
49946;SDS011;35839;48.662;13.300;2022-09-09T18:57:30;12.52;;;10.27;;
49946;SDS011;35839;48.662;13.300;2022-09-09T18:59:55;13.73;;;10.13;;
49946;SDS011;35839;48.662;13.300;2022-09-09T19:02:20;13.57;;;9.70;;
49946;SDS011;35839;48.662;13.300;2022-09-09T19:04:46;12.50;;;9.25;;
49946;SDS011;35839;48.662;13.300;2022-09-09T19:07:11;11.27;;;9.98;;
49946;SDS011;35839;48.662;13.300;2022-09-09T19:09:41;11.25;;;9.98;;
49946;SDS011;35839;48.662;13.300;2022-09-09T19:12:06;11.90;;;9.82;;
49946;SDS011;35839;48.662;13.300;2022-09-09T19:14:32;13.05;;;11.30;;
49946;SDS011;35839;48.662;13.300;2022-09-09T19:16:57;13.63;;;10.85;;
49946;SDS011;35839;48.662;13.300;2022-09-09T19:19:24;16.05;;;11.07;;
49946;SDS011;35839;48.662;13.300;2022-09-09T19:24:20;11.43;;;9.75;;
49946;SDS011;35839;48.662;13.300;2022-09-09T19:26:48;12.27;;;9.82;;
49946;SDS011;35839;48.662;13.300;2022-09-09T19:29:20;14.40;;;10.32;;
49946;SDS011;35839;48.662;13.300;2022-09-09T19:31:47;19.45;;;11.50;;
49946;SDS011;35839;48.662;13.300;2022-09-09T19:34:13;13.80;;;10.60;;
49946;SDS011;35839;48.662;13.300;2022-09-09T19:36:40;13.60;;;9.98;;
49946;SDS011;35839;48.662;13.300;2022-09-09T19:39:06;11.63;;;9.57;;
49946;SDS011;35839;48.662;13.300;2022-09-09T19:41:32;15.48;;;11.15;;
49946;SDS011;35839;48.662;13.300;2022-09-09T19:43:59;12.40;;;10.50;;
49946;SDS011;35839;48.662;13.300;2022-09-09T19:46:27;14.23;;;10.30;;
49946;SDS011;35839;48.662;13.300;2022-09-09T19:48:54;12.10;;;9.70;;
49946;SDS011;35839;48.662;13.300;2022-09-09T19:51:20;11.35;;;9.52;;
49946;SDS011;35839;48.662;13.300;2022-09-09T19:53:47;10.77;;;9.68;;
49946;SDS011;35839;48.662;13.300;2022-09-09T19:56:19;11.88;;;9.70;;
49946;SDS011;35839;48.662;13.300;2022-09-09T19:58:47;11.68;;;9.75;;
49946;SDS011;35839;48.662;13.300;2022-09-09T20:01:23;9.80;;;8.70;;
49946;SDS011;35839;48.662;13.300;2022-09-09T20:03:53;11.55;;;9.88;;
49946;SDS011;35839;48.662;13.300;2022-09-09T20:06:22;9.23;;;8.33;;
49946;SDS011;35839;48.662;13.300;2022-09-09T20:08:50;10.63;;;8.70;;
49946;SDS011;35839;48.662;13.300;2022-09-09T20:11:17;13.90;;;8.93;;
49946;SDS011;35839;48.662;13.300;2022-09-09T20:13:44;10.43;;;9.35;;
49946;SDS011;35839;48.662;13.300;2022-09-09T20:18:42;12.68;;;10.45;;
49946;SDS011;35839;48.662;13.300;2022-09-09T20:21:13;13.48;;;9.90;;
49946;SDS011;35839;48.662;13.300;2022-09-09T20:23:40;12.50;;;11.20;;
49946;SDS011;35839;48.662;13.300;2022-09-09T20:26:07;13.50;;;11.43;;
49946;SDS011;35839;48.662;13.300;2022-09-09T20:28:36;12.00;;;10.75;;
49946;SDS011;35839;48.662;13.300;2022-09-09T20:31:03;13.40;;;10.95;;
49946;SDS011;35839;48.662;13.300;2022-09-09T20:33:30;12.18;;;10.27;;
49946;SDS011;35839;48.662;13.300;2022-09-09T20:35:56;12.13;;;10.52;;
49946;SDS011;35839;48.662;13.300;2022-09-09T20:38:29;17.38;;;14.77;;
49946;SDS011;35839;48.662;13.300;2022-09-09T20:40:55;17.00;;;14.15;;
49946;SDS011;35839;48.662;13.300;2022-09-09T20:43:21;11.68;;;10.48;;
49946;SDS011;35839;48.662;13.300;2022-09-09T20:45:46;10.32;;;8.95;;
49946;SDS011;35839;48.662;13.300;2022-09-09T20:48:14;10.98;;;9.77;;
49946;SDS011;35839;48.662;13.300;2022-09-09T20:50:39;13.38;;;10.05;;
49946;SDS011;35839;48.662;13.300;2022-09-09T20:53:04;12.02;;;10.57;;
49946;SDS011;35839;48.662;13.300;2022-09-09T20:55:30;14.02;;;9.07;;
49946;SDS011;35839;48.662;13.300;2022-09-09T20:57:56;10.10;;;9.05;;
49946;SDS011;35839;48.662;13.300;2022-09-09T21:00:22;17.98;;;9.48;;
49946;SDS011;35839;48.662;13.300;2022-09-09T21:02:48;12.02;;;8.82;;
49946;SDS011;35839;48.662;13.300;2022-09-09T21:05:14;12.13;;;9.57;;
49946;SDS011;35839;48.662;13.300;2022-09-09T21:07:39;13.35;;;10.43;;
49946;SDS011;35839;48.662;13.300;2022-09-09T21:10:05;16.20;;;9.90;;
49946;SDS011;35839;48.662;13.300;2022-09-09T21:12:31;16.48;;;10.95;;
49946;SDS011;35839;48.662;13.300;2022-09-09T21:14:56;11.45;;;10.18;;
49946;SDS011;35839;48.662;13.300;2022-09-09T21:17:21;15.70;;;10.35;;
49946;SDS011;35839;48.662;13.300;2022-09-09T21:19:47;12.10;;;9.75;;
49946;SDS011;35839;48.662;13.300;2022-09-09T21:22:13;11.65;;;10.45;;
49946;SDS011;35839;48.662;13.300;2022-09-09T21:24:38;12.77;;;9.48;;
49946;SDS011;35839;48.662;13.300;2022-09-09T21:27:04;9.73;;;8.73;;
49946;SDS011;35839;48.662;13.300;2022-09-09T21:29:29;10.40;;;8.98;;
49946;SDS011;35839;48.662;13.300;2022-09-09T21:31:55;10.93;;;9.80;;
49946;SDS011;35839;48.662;13.300;2022-09-09T21:34:21;10.20;;;8.80;;
49946;SDS011;35839;48.662;13.300;2022-09-09T21:36:47;11.55;;;9.70;;
49946;SDS011;35839;48.662;13.300;2022-09-09T21:39:12;9.73;;;8.50;;